createdAt,value
2018-03-21T00:01:16.531Z,3.63
2018-03-21T00:03:42.757Z,4.10
2018-03-21T00:06:08.855Z,3.47
2018-03-21T00:08:34.900Z,4.00
2018-03-21T00:11:01.174Z,3.90
2018-03-21T00:13:27.242Z,3.90
2018-03-21T00:15:53.476Z,3.37
2018-03-21T00:18:19.509Z,3.77
2018-03-21T00:20:45.550Z,3.67
2018-03-21T00:23:11.636Z,4.23
2018-03-21T00:25:37.652Z,4.43
2018-03-21T00:28:03.975Z,3.70
2018-03-21T00:30:30.001Z,4.27
2018-03-21T00:32:56.036Z,3.30
2018-03-21T00:35:22.324Z,3.90
2018-03-21T00:37:48.353Z,3.53
2018-03-21T00:40:14.579Z,4.17
2018-03-21T00:42:40.611Z,3.97
2018-03-21T00:45:06.647Z,4.10
2018-03-21T00:47:32.683Z,4.07
2018-03-21T00:49:58.724Z,3.80
2018-03-21T00:52:24.871Z,3.80
2018-03-21T00:54:50.919Z,3.97
2018-03-21T00:57:16.940Z,3.70
2018-03-21T00:59:43.022Z,4.00
2018-03-21T01:02:09.234Z,4.40
2018-03-21T01:04:35.300Z,3.60
2018-03-21T01:07:01.381Z,4.30
2018-03-21T01:09:27.463Z,3.90
2018-03-21T01:11:53.759Z,3.70
2018-03-21T01:14:19.818Z,4.03
2018-03-21T01:16:45.866Z,3.97
2018-03-21T01:19:11.887Z,3.50
2018-03-21T01:21:37.926Z,3.70
2018-03-21T01:24:03.983Z,3.60
2018-03-21T01:26:30.153Z,3.50
2018-03-21T01:28:56.221Z,4.07
2018-03-21T01:31:22.795Z,3.80
2018-03-21T01:33:48.836Z,3.90
2018-03-21T01:36:14.889Z,4.10
2018-03-21T01:38:41.092Z,4.07
2018-03-21T01:41:07.139Z,4.07
2018-03-21T01:43:33.348Z,4.23
2018-03-21T01:45:59.391Z,3.33
2018-03-21T01:48:25.492Z,3.70
2018-03-21T01:50:51.550Z,3.93
2018-03-21T01:53:17.579Z,3.97
2018-03-21T01:55:43.840Z,4.17
2018-03-21T01:58:09.899Z,3.70
2018-03-21T02:00:50.889Z,3.93
2018-03-21T02:03:16.920Z,3.90
2018-03-21T02:05:43.060Z,3.83
2018-03-21T02:08:09.094Z,4.47
2018-03-21T02:10:35.120Z,3.47
2018-03-21T02:13:01.207Z,3.80
2018-03-21T02:15:27.270Z,3.90
2018-03-21T02:17:53.328Z,4.23
2018-03-21T02:20:19.343Z,3.63
2018-03-21T02:22:45.396Z,3.87
2018-03-21T02:25:11.430Z,4.00
2018-03-21T02:27:37.633Z,3.40
2018-03-21T02:30:03.682Z,3.40
2018-03-21T02:32:29.768Z,3.70
2018-03-21T02:34:55.835Z,4.00
2018-03-21T02:37:21.904Z,4.17
2018-03-21T02:39:48.159Z,3.77
2018-03-21T02:42:14.202Z,3.90
2018-03-21T02:44:40.281Z,3.90
2018-03-21T02:47:06.377Z,3.60
2018-03-21T02:49:32.433Z,3.90
2018-03-21T02:51:58.657Z,3.47
2018-03-21T02:54:24.700Z,3.47
2018-03-21T02:56:50.907Z,3.60
2018-03-21T02:59:16.962Z,4.33
2018-03-21T03:01:43.035Z,3.90
2018-03-21T03:04:09.087Z,4.33
2018-03-21T03:06:35.123Z,3.83
2018-03-21T03:09:01.280Z,4.10
2018-03-21T03:11:27.384Z,4.00
2018-03-21T03:13:53.540Z,4.20
2018-03-21T03:16:19.693Z,4.73
2018-03-21T03:18:45.773Z,4.53
2018-03-21T03:21:11.962Z,4.70
2018-03-21T03:23:37.991Z,4.73
2018-03-21T03:26:04.032Z,4.20
2018-03-21T03:28:30.088Z,4.80
2018-03-21T03:30:56.140Z,4.50
2018-03-21T03:33:22.321Z,4.40
2018-03-21T03:35:48.402Z,4.93
2018-03-21T03:38:14.543Z,4.07
2018-03-21T03:40:40.574Z,4.70
2018-03-21T03:43:06.954Z,4.80
2018-03-21T03:45:32.966Z,5.00
2018-03-21T03:47:59.044Z,4.97
2018-03-21T03:50:25.238Z,5.20
2018-03-21T03:52:51.335Z,4.80
2018-03-21T03:55:17.466Z,4.67
2018-03-21T03:57:43.560Z,5.07
2018-03-21T04:00:09.563Z,5.20
2018-03-21T04:02:35.645Z,4.27
2018-03-21T04:05:01.836Z,5.30
2018-03-21T04:07:27.882Z,5.00
2018-03-21T04:12:47.036Z,5.30
2018-03-21T04:15:13.144Z,4.07
2018-03-21T04:17:39.240Z,4.47
2018-03-21T04:20:05.257Z,4.23
2018-03-21T04:22:31.644Z,4.77
2018-03-21T04:24:57.667Z,5.50
2018-03-21T04:27:23.712Z,4.40
2018-03-21T04:29:49.949Z,4.80
2018-03-21T04:32:16.002Z,4.73
2018-03-21T04:34:42.089Z,4.93
2018-03-21T04:37:08.122Z,5.10
2018-03-21T04:39:34.164Z,5.80
2018-03-21T04:42:00.384Z,4.30
2018-03-21T04:44:26.440Z,4.53
2018-03-21T04:46:52.599Z,5.27
2018-03-21T04:49:19.117Z,4.73
2018-03-21T04:51:45.150Z,5.63
2018-03-21T04:54:11.332Z,5.47
2018-03-21T04:56:37.687Z,5.10
2018-03-21T04:59:03.722Z,6.00
2018-03-21T05:01:29.823Z,4.80
2018-03-21T05:03:56.203Z,4.90
2018-03-21T05:06:22.256Z,4.87
2018-03-21T05:08:48.405Z,4.80
2018-03-21T05:11:14.476Z,4.60
2018-03-21T05:13:40.548Z,4.43
2018-03-21T05:16:06.790Z,4.20
2018-03-21T05:18:32.845Z,5.03
2018-03-21T05:20:58.888Z,4.83
2018-03-21T05:23:24.948Z,5.17
2018-03-21T05:25:51.199Z,5.03
2018-03-21T05:28:17.624Z,5.20
2018-03-21T05:30:43.742Z,4.03
2018-03-21T05:33:09.805Z,5.20
2018-03-21T05:35:35.867Z,5.10
2018-03-21T05:38:01.902Z,4.77
2018-03-21T05:40:28.322Z,4.67
2018-03-21T05:42:54.530Z,4.90
2018-03-21T05:45:20.545Z,4.23
2018-03-21T05:47:46.676Z,4.60
2018-03-21T05:50:12.805Z,4.43
2018-03-21T05:52:38.898Z,4.77
2018-03-21T05:55:04.983Z,4.40
2018-03-21T05:57:31.048Z,4.63
2018-03-21T05:59:57.508Z,4.80
2018-03-21T06:02:23.635Z,4.50
2018-03-21T06:04:49.668Z,4.63
2018-03-21T06:07:15.758Z,4.50
2018-03-21T06:09:41.835Z,5.50
2018-03-21T06:12:08.017Z,6.67
2018-03-21T06:14:34.082Z,5.17
2018-03-21T06:17:00.120Z,4.10
2018-03-21T06:19:26.167Z,4.33
2018-03-21T06:21:52.258Z,4.33
2018-03-21T06:24:18.479Z,4.57
2018-03-21T06:26:44.500Z,4.90
2018-03-21T06:29:10.599Z,3.77
2018-03-21T06:31:36.630Z,4.53
2018-03-21T06:34:02.639Z,4.57
2018-03-21T06:36:28.714Z,4.90
2018-03-21T06:38:54.737Z,4.70
2018-03-21T06:41:20.853Z,4.50
2018-03-21T06:43:46.884Z,4.50
2018-03-21T06:46:13.069Z,4.10
2018-03-21T06:48:39.134Z,4.07
2018-03-21T06:51:05.146Z,3.80
2018-03-21T06:53:31.566Z,3.67
2018-03-21T06:55:57.632Z,3.97
2018-03-21T06:58:23.688Z,3.90
2018-03-21T07:00:49.784Z,3.93
2018-03-21T07:03:15.848Z,3.83
2018-03-21T07:05:41.918Z,3.50
2018-03-21T07:08:08.012Z,3.93
2018-03-21T07:10:34.090Z,3.70
2018-03-21T07:13:00.166Z,3.43
2018-03-21T07:15:38.490Z,3.67
2018-03-21T07:18:04.923Z,4.03
2018-03-21T07:20:31.016Z,3.03
2018-03-21T07:22:57.073Z,3.80
2018-03-21T07:25:23.160Z,3.40
2018-03-21T07:27:49.274Z,3.90
2018-03-21T07:30:15.376Z,2.63
2018-03-21T07:32:41.398Z,3.73
2018-03-21T07:35:07.448Z,3.80
2018-03-21T07:37:33.535Z,3.23
2018-03-21T07:39:59.586Z,3.57
2018-03-21T07:42:25.934Z,3.80
2018-03-21T07:44:51.993Z,3.50
2018-03-21T07:47:18.043Z,3.53
2018-03-21T07:49:44.281Z,3.80
2018-03-21T07:52:10.330Z,3.73
2018-03-21T07:54:37.013Z,4.03
2018-03-21T07:57:03.085Z,4.43
2018-03-21T07:59:29.152Z,3.90
2018-03-21T08:01:55.200Z,3.93
2018-03-21T08:04:21.216Z,3.63
2018-03-21T08:06:47.262Z,3.97
2018-03-21T08:09:13.285Z,3.80
2018-03-21T08:11:39.623Z,4.10
2018-03-21T08:14:05.674Z,4.40
2018-03-21T08:16:31.707Z,4.40
2018-03-21T08:18:57.968Z,3.87
2018-03-21T08:21:24.062Z,3.87
2018-03-21T08:23:50.131Z,3.83
2018-03-21T08:26:16.405Z,3.20
2018-03-21T08:28:42.480Z,3.90
2018-03-21T08:31:08.511Z,3.63
2018-03-21T08:33:34.593Z,3.77
2018-03-21T08:36:00.686Z,4.30
2018-03-21T08:38:26.829Z,3.93
2018-03-21T08:40:52.865Z,3.70
2018-03-21T08:43:18.909Z,4.00
2018-03-21T08:45:44.970Z,4.10
2018-03-21T08:48:11.226Z,4.90
2018-03-21T08:50:37.243Z,4.70
2018-03-21T08:53:03.278Z,4.40
2018-03-21T08:55:29.500Z,4.30
2018-03-21T08:57:55.541Z,4.73
2018-03-21T09:00:21.853Z,4.73
2018-03-21T09:02:47.905Z,4.70
2018-03-21T09:05:13.975Z,4.10
2018-03-21T09:07:40.083Z,3.77
2018-03-21T09:10:06.134Z,3.90
2018-03-21T09:12:32.332Z,4.53
2018-03-21T09:14:58.492Z,4.60
2018-03-21T09:17:24.573Z,4.40
2018-03-21T09:19:50.607Z,4.50
2018-03-21T09:22:16.863Z,4.30
2018-03-21T09:24:42.915Z,4.17
2018-03-21T09:27:09.106Z,4.90
2018-03-21T09:29:35.213Z,4.80
2018-03-21T09:32:01.350Z,4.50
2018-03-21T09:34:27.567Z,4.90
2018-03-21T09:36:53.612Z,3.80
2018-03-21T09:39:19.960Z,4.00
2018-03-21T09:41:46.007Z,4.47
2018-03-21T09:44:12.130Z,3.87
2018-03-21T09:46:38.350Z,4.67
2018-03-21T09:49:04.395Z,4.03
2018-03-21T09:51:30.414Z,4.37
2018-03-21T09:53:56.504Z,4.10
2018-03-21T09:56:22.714Z,4.00
2018-03-21T09:58:48.880Z,4.47
2018-03-21T10:01:14.943Z,3.87
2018-03-21T10:03:41.000Z,3.67
2018-03-21T10:06:07.054Z,3.87
2018-03-21T10:08:33.168Z,4.30
2018-03-21T10:10:59.196Z,4.57
2018-03-21T10:13:25.363Z,4.50
2018-03-21T10:15:51.493Z,5.60
2018-03-21T10:18:17.546Z,5.37
2018-03-21T10:20:43.565Z,4.63
2018-03-21T10:23:09.756Z,4.00
2018-03-21T10:25:36.016Z,4.50
2018-03-21T10:28:02.184Z,4.70
2018-03-21T10:30:28.222Z,4.73
2018-03-21T10:32:54.309Z,5.03
2018-03-21T10:35:20.530Z,4.77
2018-03-21T10:37:46.627Z,5.20
2018-03-21T10:40:12.973Z,4.83
2018-03-21T10:42:39.044Z,4.13
2018-03-21T10:45:05.288Z,4.67
2018-03-21T10:47:31.353Z,3.93
2018-03-21T10:49:57.546Z,3.77
2018-03-21T10:52:23.616Z,4.53
2018-03-21T10:54:50.532Z,4.53
2018-03-21T10:57:16.604Z,4.10
2018-03-21T10:59:42.657Z,4.63
2018-03-21T11:02:13.717Z,3.83
2018-03-21T11:04:39.761Z,3.67
2018-03-21T11:07:05.941Z,3.70
2018-03-21T11:09:32.007Z,3.73
2018-03-21T11:11:58.108Z,4.60
2018-03-21T11:14:24.812Z,4.53
2018-03-21T11:16:51.562Z,4.00
2018-03-21T11:19:17.703Z,4.60
2018-03-21T11:21:43.747Z,3.30
2018-03-21T11:24:09.895Z,4.10
2018-03-21T11:26:35.961Z,3.80
2018-03-21T11:29:02.023Z,3.13
2018-03-21T11:31:28.046Z,3.70
2018-03-21T11:33:54.235Z,3.47
2018-03-21T11:36:20.351Z,3.40
2018-03-21T11:38:46.396Z,2.90
2018-03-21T11:41:12.452Z,3.40
2018-03-21T11:43:38.519Z,2.80
2018-03-21T11:46:19.442Z,3.13
2018-03-21T11:48:45.492Z,3.00
2018-03-21T11:51:11.633Z,2.20
2018-03-21T11:53:37.665Z,2.80
2018-03-21T11:56:03.831Z,3.27
2018-03-21T11:58:29.863Z,2.90
2018-03-21T12:00:55.928Z,2.60
2018-03-21T12:03:21.953Z,3.30
2018-03-21T12:05:48.246Z,3.40
2018-03-21T12:08:14.441Z,3.10
2018-03-21T12:10:40.544Z,2.40
2018-03-21T12:13:06.637Z,2.30
2018-03-21T12:15:32.841Z,2.60
2018-03-21T12:17:58.903Z,3.00
2018-03-21T12:20:24.936Z,2.37
2018-03-21T12:22:50.993Z,2.70
2018-03-21T12:25:17.015Z,2.30
2018-03-21T12:27:43.076Z,2.70
2018-03-21T12:30:09.082Z,10.73
2018-03-21T12:32:35.327Z,2.70
2018-03-21T12:35:01.395Z,2.50
2018-03-21T12:37:27.484Z,2.63
2018-03-21T12:39:53.659Z,2.60
2018-03-21T12:42:19.699Z,2.20
2018-03-21T12:44:46.665Z,2.40
2018-03-21T12:47:12.688Z,2.43
2018-03-21T12:49:38.868Z,2.40
2018-03-21T12:52:04.940Z,2.70
2018-03-21T12:54:31.144Z,3.00
2018-03-21T12:56:57.388Z,2.90
2018-03-21T12:59:23.450Z,2.50
2018-03-21T13:01:49.528Z,2.63
2018-03-21T13:04:15.639Z,2.50
2018-03-21T13:06:41.669Z,2.50
2018-03-21T13:09:07.842Z,2.60
2018-03-21T13:11:33.970Z,2.60
2018-03-21T13:14:00.010Z,2.00
2018-03-21T13:16:26.193Z,2.50
2018-03-21T13:18:52.227Z,2.40
2018-03-21T13:21:18.314Z,2.67
2018-03-21T13:23:44.644Z,2.30
2018-03-21T13:26:11.057Z,2.63
2018-03-21T13:28:37.116Z,2.30
2018-03-21T13:31:03.196Z,2.40
2018-03-21T13:33:29.259Z,2.37
2018-03-21T13:35:55.311Z,2.10
2018-03-21T13:38:21.399Z,2.17
2018-03-21T13:40:47.438Z,2.30
2018-03-21T13:43:13.498Z,2.67
2018-03-21T13:45:39.571Z,2.33
2018-03-21T13:48:05.589Z,2.20
2018-03-21T13:50:31.694Z,2.07
2018-03-21T13:52:57.790Z,2.00
2018-03-21T13:55:23.857Z,2.43
2018-03-21T13:57:50.131Z,2.63
2018-03-21T14:00:16.141Z,2.13
2018-03-21T14:02:42.221Z,2.40
2018-03-21T14:05:08.268Z,2.30
2018-03-21T14:07:34.344Z,2.10
2018-03-21T14:10:00.591Z,2.33
2018-03-21T14:12:26.678Z,2.40
2018-03-21T14:14:52.801Z,2.40
2018-03-21T14:17:18.852Z,2.20
2018-03-21T14:19:44.909Z,1.73
2018-03-21T14:22:10.985Z,2.20
2018-03-21T14:24:37.102Z,2.20
2018-03-21T14:27:03.121Z,2.87
2018-03-21T14:29:29.401Z,2.57
2018-03-21T14:31:55.482Z,2.40
2018-03-21T14:34:21.612Z,2.63
2018-03-21T14:36:48.025Z,2.90
2018-03-21T14:39:14.068Z,2.60
2018-03-21T14:41:40.145Z,2.53
2018-03-21T14:44:06.186Z,2.70
2018-03-21T14:46:32.246Z,3.93
2018-03-21T14:48:58.305Z,3.90
2018-03-21T14:51:24.330Z,3.60
2018-03-21T14:53:50.422Z,3.93
2018-03-21T14:56:16.469Z,11.63
2018-03-21T14:58:42.660Z,4.63
2018-03-21T15:01:08.720Z,3.77
2018-03-21T15:03:34.795Z,3.93
2018-03-21T15:06:00.965Z,3.70
2018-03-21T15:08:27.042Z,4.67
2018-03-21T15:10:53.231Z,3.50
2018-03-21T15:13:19.383Z,4.57
2018-03-21T15:15:45.458Z,4.40
2018-03-21T15:18:11.628Z,4.33
2018-03-21T15:20:53.016Z,4.73
2018-03-21T15:26:12.400Z,3.97
2018-03-21T15:28:38.452Z,5.63
2018-03-21T15:31:05.004Z,4.93
2018-03-21T15:33:31.076Z,4.93
2018-03-21T15:35:57.097Z,5.47
2018-03-21T15:38:23.167Z,4.60
2018-03-21T15:40:49.260Z,5.83
2018-03-21T15:43:15.684Z,5.20
2018-03-21T15:45:41.735Z,4.60
2018-03-21T15:48:07.805Z,4.10
2018-03-21T15:50:33.854Z,4.50
2018-03-21T15:52:59.935Z,4.73
2018-03-21T15:55:26.052Z,4.40
2018-03-21T15:57:52.104Z,4.57
2018-03-21T16:00:18.200Z,4.37
2018-03-21T16:02:44.319Z,4.10
2018-03-21T16:05:10.366Z,4.10
2018-03-21T16:07:36.459Z,3.40
2018-03-21T16:10:02.677Z,3.17
2018-03-21T16:12:28.785Z,3.73
2018-03-21T16:14:55.015Z,3.50
2018-03-21T16:17:21.072Z,3.73
2018-03-21T16:19:47.132Z,4.73
2018-03-21T16:22:13.302Z,4.63
2018-03-21T16:24:39.368Z,4.40
2018-03-21T16:27:05.407Z,5.07
2018-03-21T16:29:31.466Z,4.30
2018-03-21T16:31:57.660Z,5.00
2018-03-21T16:34:23.730Z,6.17
2018-03-21T16:36:49.889Z,5.80
2018-03-21T16:39:15.911Z,5.70
2018-03-21T16:41:42.349Z,4.77
2018-03-21T16:44:08.439Z,6.50
2018-03-21T16:46:34.494Z,4.10
2018-03-21T16:49:00.565Z,4.93
2018-03-21T16:51:26.614Z,4.97
2018-03-21T16:53:52.655Z,5.23
2018-03-21T16:56:18.668Z,5.13
2018-03-21T16:58:44.743Z,5.73
2018-03-21T17:01:10.822Z,5.70
2018-03-21T17:03:36.931Z,6.63
2018-03-21T17:06:17.915Z,6.33
2018-03-21T17:08:44.038Z,5.77
2018-03-21T17:11:10.098Z,6.00
2018-03-21T17:13:37.118Z,6.43
2018-03-21T17:16:03.171Z,5.93
2018-03-21T17:18:29.218Z,6.07
2018-03-21T17:20:55.453Z,6.60
2018-03-21T17:23:21.545Z,5.40
2018-03-21T17:25:48.044Z,6.60
2018-03-21T17:28:14.107Z,8.20
2018-03-21T17:30:40.328Z,7.80
2018-03-21T17:33:06.434Z,6.20
2018-03-21T17:35:32.950Z,6.33
2018-03-21T17:37:59.031Z,7.17
2018-03-21T17:40:25.109Z,6.53
2018-03-21T17:42:51.228Z,6.30
2018-03-21T17:45:17.495Z,7.23
2018-03-21T17:47:43.561Z,5.80
2018-03-21T17:50:09.661Z,6.57
2018-03-21T17:52:35.739Z,5.83
2018-03-21T17:55:01.890Z,4.70
2018-03-21T17:57:28.037Z,6.00
2018-03-21T17:59:54.095Z,6.50
2018-03-21T18:02:20.132Z,6.90
2018-03-21T18:04:46.251Z,6.40
2018-03-21T18:07:12.315Z,6.40
2018-03-21T18:09:38.914Z,5.90
2018-03-21T18:12:05.324Z,6.87
2018-03-21T18:14:31.425Z,6.17
2018-03-21T18:16:57.638Z,6.73
2018-03-21T18:19:23.724Z,6.03
2018-03-21T18:21:50.850Z,6.50
2018-03-21T18:24:16.910Z,6.97
2018-03-21T18:26:43.003Z,6.07
2018-03-21T18:29:09.041Z,6.20
2018-03-21T18:31:35.354Z,6.03
2018-03-21T18:34:01.449Z,5.93
2018-03-21T18:36:27.570Z,6.33
2018-03-21T18:38:54.551Z,6.70
2018-03-21T18:41:20.645Z,5.63
2018-03-21T18:43:47.720Z,5.97
2018-03-21T18:46:13.859Z,6.40
2018-03-21T18:48:39.999Z,7.13
2018-03-21T18:51:06.285Z,6.03
2018-03-21T18:53:32.425Z,6.50
2018-03-21T18:55:58.571Z,6.80
2018-03-21T18:58:24.701Z,6.87
2018-03-21T19:00:50.839Z,7.10
2018-03-21T19:03:16.904Z,6.97
2018-03-21T19:05:42.961Z,7.50
2018-03-21T19:08:09.188Z,7.20
2018-03-21T19:10:35.353Z,7.87
2018-03-21T19:13:01.588Z,7.47
2018-03-21T19:15:28.683Z,7.63
2018-03-21T19:17:54.847Z,6.97
2018-03-21T19:20:21.046Z,5.70
2018-03-21T19:22:47.180Z,7.10
2018-03-21T19:25:13.497Z,7.00
2018-03-21T19:27:39.622Z,6.60
2018-03-21T19:30:05.791Z,7.50
2018-03-21T19:32:31.882Z,7.13
2018-03-21T19:34:58.073Z,6.37
2018-03-21T19:37:24.148Z,6.40
2018-03-21T19:39:50.463Z,6.97
2018-03-21T19:42:16.626Z,7.13
2018-03-21T19:44:42.724Z,8.10
2018-03-21T19:47:08.814Z,7.87
2018-03-21T19:49:34.910Z,7.93
2018-03-21T19:52:01.032Z,7.07
2018-03-21T19:54:27.161Z,8.30
2018-03-21T19:56:53.284Z,8.00
2018-03-21T19:59:20.410Z,7.50
2018-03-21T20:01:46.658Z,7.53
2018-03-21T20:04:12.955Z,6.90
2018-03-21T20:06:39.279Z,7.70
2018-03-21T20:09:05.419Z,8.47
2018-03-21T20:11:31.465Z,7.50
2018-03-21T20:13:57.543Z,7.97
2018-03-21T20:16:23.618Z,7.80
2018-03-21T20:18:49.648Z,7.30
2018-03-21T20:21:16.157Z,7.90
2018-03-21T20:23:42.251Z,8.20
2018-03-21T20:26:08.566Z,8.23
2018-03-21T20:28:34.623Z,8.77
2018-03-21T20:31:00.926Z,7.97
2018-03-21T20:33:28.332Z,8.47
2018-03-21T20:35:54.472Z,9.20
2018-03-21T20:38:20.626Z,9.30
2018-03-21T20:40:46.721Z,8.30
2018-03-21T20:43:13.762Z,8.17
2018-03-21T20:45:40.899Z,8.60
2018-03-21T20:48:07.017Z,8.73
2018-03-21T20:50:33.157Z,9.13
2018-03-21T20:52:59.207Z,9.30
2018-03-21T20:55:25.426Z,8.27
2018-03-21T20:57:51.494Z,9.40
2018-03-21T21:00:17.770Z,9.23
2018-03-21T21:02:44.794Z,9.87
2018-03-21T21:05:10.846Z,8.57
2018-03-21T21:07:36.973Z,7.97
2018-03-21T21:10:03.092Z,10.00
2018-03-21T21:12:29.407Z,9.37
2018-03-21T21:14:56.460Z,8.23
2018-03-21T21:17:22.594Z,8.57
2018-03-21T21:19:48.702Z,9.90
2018-03-21T21:22:14.915Z,9.00
2018-03-21T21:24:41.030Z,9.53
2018-03-21T21:27:07.109Z,9.30
2018-03-21T21:29:33.225Z,9.00
2018-03-21T21:31:59.285Z,9.43
2018-03-21T21:34:25.399Z,8.90
2018-03-21T21:36:51.719Z,9.20
2018-03-21T21:39:17.863Z,9.73
2018-03-21T21:41:44.362Z,7.40
2018-03-21T21:44:10.466Z,10.00
2018-03-21T21:46:36.547Z,7.97
2018-03-21T21:49:02.602Z,8.27
2018-03-21T21:51:28.645Z,8.87
2018-03-21T21:53:54.736Z,8.87
2018-03-21T21:56:20.812Z,8.40
2018-03-21T21:58:47.043Z,7.27
2018-03-21T22:01:13.889Z,7.53
2018-03-21T22:03:39.934Z,8.70
2018-03-21T22:06:06.105Z,8.53
2018-03-21T22:08:32.214Z,8.43
2018-03-21T22:10:58.332Z,8.23
2018-03-21T22:13:24.410Z,8.53
2018-03-21T22:15:51.128Z,9.63
2018-03-21T22:18:17.236Z,8.33
2018-03-21T22:20:43.331Z,8.67
2018-03-21T22:23:09.442Z,8.87
2018-03-21T22:25:35.528Z,9.00
2018-03-21T22:28:01.924Z,9.53
2018-03-21T22:30:28.012Z,9.17
2018-03-21T22:32:54.116Z,7.70
2018-03-21T22:35:20.386Z,9.77
2018-03-21T22:37:46.431Z,8.67
2018-03-21T22:40:12.772Z,9.63
2018-03-21T22:42:38.823Z,10.00
2018-03-21T22:45:04.974Z,10.43
2018-03-21T22:47:31.114Z,10.10
2018-03-21T22:49:57.166Z,10.93
2018-03-21T22:52:23.490Z,11.23
2018-03-21T22:54:49.824Z,11.03
2018-03-21T22:57:15.916Z,11.77
2018-03-21T22:59:42.058Z,13.43
2018-03-21T23:02:08.152Z,11.03
2018-03-21T23:04:34.230Z,12.30
2018-03-21T23:07:00.333Z,11.83
2018-03-21T23:09:26.438Z,11.27
2018-03-21T23:11:52.632Z,13.23
2018-03-21T23:14:18.683Z,13.10
2018-03-21T23:16:44.773Z,12.50
2018-03-21T23:19:10.925Z,12.33
2018-03-21T23:21:36.972Z,13.70
2018-03-21T23:24:03.076Z,13.17
2018-03-21T23:26:29.158Z,14.40
2018-03-21T23:28:55.217Z,13.37
2018-03-21T23:31:21.286Z,14.80
2018-03-21T23:33:47.373Z,12.80
2018-03-21T23:36:13.480Z,14.83
2018-03-21T23:38:39.639Z,14.43
2018-03-21T23:41:05.711Z,14.43
2018-03-21T23:43:31.968Z,15.27
2018-03-21T23:45:58.073Z,13.87
2018-03-21T23:48:24.102Z,16.17
2018-03-21T23:50:50.179Z,16.27
2018-03-21T23:53:16.195Z,16.07
2018-03-21T23:55:42.350Z,15.40
2018-03-21T23:58:08.376Z,15.67
